Time;durP1;ratioP1;P1;durP2;ratioP2;P2;SDS_P1;SDS_P2;PMS_P1;PMS_P2;Temp;Humidity;BMP_temperature;BMP_pressure;BME280_temperature;BME280_humidity;BME280_pressure;Samples;Min_cycle;Max_cycle;Signal;HPM_P1;HPM_P2
2022/06/23 00:00:00;;;;;;;1999.90;999.90;;;15.90;99.90;;;;;;5033319;28;20447;-68
2022/06/23 00:02:28;;;;;;;1999.90;999.90;;;15.90;99.90;;;;;;5032995;28;20497;-68
2022/06/23 00:04:59;;;;;;;1999.90;999.90;;;15.50;99.90;;;;;;5032878;28;20890;-69
2022/06/23 00:07:29;;;;;;;1999.90;999.90;;;15.60;99.90;;;;;;5032803;28;20458;-68
2022/06/23 00:09:56;;;;;;;1999.90;999.90;;;15.70;99.90;;;;;;5032933;28;20450;-69
2022/06/23 00:12:28;;;;;;;1999.90;999.90;;;15.40;99.90;;;;;;5032711;28;20917;-69
2022/06/23 00:15:12;;;;;;;1999.90;999.90;;;15.30;99.90;;;;;;5032607;28;20533;-68
2022/06/23 00:17:42;;;;;;;1999.90;999.90;;;15.10;99.90;;;;;;5032360;28;20516;-68
2022/06/23 00:20:13;;;;;;;1999.90;999.90;;;15.00;99.90;;;;;;5032412;28;20486;-68
2022/06/23 00:22:42;;;;;;;1999.90;999.90;;;15.10;99.90;;;;;;5032730;28;20450;-67
2022/06/23 00:25:16;;;;;;;1999.90;999.90;;;15.00;99.90;;;;;;5032590;28;20541;-67
2022/06/23 00:27:45;;;;;;;1999.90;999.90;;;15.00;99.90;;;;;;5032506;28;20481;-68
2022/06/23 00:30:21;;;;;;;1999.90;999.90;;;14.80;99.90;;;;;;5032530;28;20454;-68
2022/06/23 00:32:48;;;;;;;1999.90;999.90;;;14.50;99.90;;;;;;5032430;28;20466;-67
2022/06/23 00:35:17;;;;;;;1999.90;999.90;;;14.40;99.90;;;;;;5032529;28;20475;-66
2022/06/23 00:37:46;;;;;;;1999.90;999.90;;;14.20;99.90;;;;;;5032385;28;20947;-67
2022/06/23 00:40:15;;;;;;;1999.90;999.90;;;14.30;99.90;;;;;;5032006;28;20459;-69
2022/06/23 00:42:53;;;;;;;1999.90;999.90;;;14.30;99.90;;;;;;5032169;28;20447;-66
2022/06/23 00:45:26;;;;;;;1999.90;999.90;;;14.30;99.90;;;;;;5032443;28;20504;-66
2022/06/23 00:48:02;;;;;;;1999.90;999.90;;;14.20;99.90;;;;;;5032108;28;20449;-67
2022/06/23 00:50:34;;;;;;;1999.90;999.90;;;14.10;99.90;;;;;;5031918;28;20504;-65
2022/06/23 00:53:05;;;;;;;1999.90;999.90;;;13.90;99.90;;;;;;5032138;28;20463;-66
2022/06/23 00:55:43;;;;;;;1999.90;999.90;;;13.80;99.90;;;;;;5032320;28;20852;-67
2022/06/23 00:58:25;;;;;;;1999.90;999.90;;;13.90;99.90;;;;;;5031850;28;20815;-67
2022/06/23 01:00:54;;;;;;;1999.90;999.90;;;13.90;99.90;;;;;;5031635;28;20454;-66
2022/06/23 01:03:28;;;;;;;1999.90;999.90;;;13.90;99.90;;;;;;5031903;28;20467;-66
2022/06/23 01:06:00;;;;;;;1999.90;999.90;;;13.80;99.90;;;;;;5033047;28;20471;-66
2022/06/23 01:08:32;;;;;;;1999.90;999.90;;;13.80;99.90;;;;;;5032678;28;20852;-65
2022/06/23 01:11:05;;;;;;;1999.90;999.90;;;13.80;99.90;;;;;;5031513;28;20962;-67
2022/06/23 01:13:38;;;;;;;1999.90;999.90;;;13.70;99.90;;;;;;5058879;22;20560;-69
2022/06/23 01:16:09;;;;;;;1999.90;999.90;;;13.50;99.90;;;;;;5062798;28;20551;-71
2022/06/23 01:18:40;;;;;;;1999.90;999.90;;;13.40;99.90;;;;;;5051885;28;20902;-70
2022/06/23 01:21:15;;;;;;;1999.90;999.90;;;13.30;99.90;;;;;;5052467;28;20442;-71
2022/06/23 01:24:20;;;;;;;1999.90;999.90;;;13.30;99.90;;;;;;5052407;28;20465;-71
2022/06/23 01:27:11;;;;;;;1999.90;999.90;;;13.30;99.90;;;;;;5052696;28;20445;-71
2022/06/23 01:29:43;;;;;;;1999.90;999.90;;;13.20;99.90;;;;;;5052671;28;20434;-71
2022/06/23 01:32:17;;;;;;;1999.90;999.90;;;13.40;99.90;;;;;;5051953;28;20427;-70
2022/06/23 01:34:49;;;;;;;1999.90;999.90;;;13.40;99.90;;;;;;5051906;28;20470;-71
2022/06/23 01:37:22;;;;;;;1999.90;999.90;;;13.50;99.90;;;;;;5051902;28;20454;-71
2022/06/23 01:39:53;;;;;;;1999.90;999.90;;;13.60;99.90;;;;;;5052241;28;21042;-71
2022/06/23 01:42:25;;;;;;;1999.90;999.90;;;13.60;99.90;;;;;;5051550;28;20508;-71
2022/06/23 01:45:00;;;;;;;1999.90;999.90;;;13.60;99.90;;;;;;5051886;28;20462;-71
2022/06/23 01:47:33;;;;;;;1999.90;999.90;;;13.50;99.90;;;;;;5052506;28;20441;-71
2022/06/23 01:50:22;;;;;;;1999.90;999.90;;;13.40;99.90;;;;;;5052485;28;20435;-71
2022/06/23 01:53:09;;;;;;;1999.90;999.90;;;13.20;99.90;;;;;;5052220;28;20867;-70
2022/06/23 01:55:50;;;;;;;1999.90;999.90;;;12.90;99.90;;;;;;5052290;28;20470;-71
2022/06/23 01:58:18;;;;;;;1999.90;999.90;;;13.00;99.90;;;;;;5052460;28;20861;-70
2022/06/23 02:00:48;;;;;;;1999.90;999.90;;;13.00;99.90;;;;;;5055941;28;20446;-70
2022/06/23 02:03:20;;;;;;;1999.90;999.90;;;13.00;99.90;;;;;;5056507;28;20442;-70
2022/06/23 02:05:50;;;;;;;1999.90;999.90;;;13.20;99.90;;;;;;5055612;28;20980;-70
2022/06/23 02:08:34;;;;;;;1999.90;999.90;;;13.30;99.90;;;;;;5055526;28;20906;-70
2022/06/23 02:11:06;;;;;;;1999.90;999.90;;;13.30;99.90;;;;;;5055569;28;20434;-71
2022/06/23 02:13:42;;;;;;;1999.90;999.90;;;13.20;99.90;;;;;;5055760;28;20478;-70
2022/06/23 02:16:19;;;;;;;1999.90;999.90;;;13.10;99.90;;;;;;5055325;28;20809;-71
2022/06/23 02:18:53;;;;;;;1999.90;999.90;;;13.10;99.90;;;;;;5055936;28;20483;-71
2022/06/23 02:21:25;;;;;;;1999.90;999.90;;;13.20;99.90;;;;;;5055493;28;20755;-71
2022/06/23 02:23:56;;;;;;;1999.90;999.90;;;13.30;99.90;;;;;;5055123;28;20516;-71
2022/06/23 02:26:28;;;;;;;1999.90;999.90;;;13.30;99.90;;;;;;5055265;28;20426;-71
2022/06/23 02:29:01;;;;;;;1999.90;999.90;;;13.30;99.90;;;;;;5055506;28;20450;-71
2022/06/23 02:31:38;;;;;;;1999.90;999.90;;;13.20;99.90;;;;;;5055334;28;20489;-71
2022/06/23 02:34:13;;;;;;;1999.90;999.90;;;13.30;99.90;;;;;;5055053;28;20496;-71
2022/06/23 02:37:02;;;;;;;1999.90;999.90;;;13.40;99.90;;;;;;5054576;28;20503;-70
2022/06/23 02:39:36;;;;;;;1999.90;999.90;;;13.70;99.90;;;;;;5054753;28;20911;-71
2022/06/23 02:42:06;;;;;;;1999.90;999.90;;;13.70;99.90;;;;;;5054505;28;20857;-71
2022/06/23 02:44:58;;;;;;;1999.90;999.90;;;13.80;99.90;;;;;;5054743;28;20462;-72
2022/06/23 02:47:43;;;;;;;1999.90;999.90;;;13.50;99.90;;;;;;5055100;28;20911;-71
2022/06/23 02:50:27;;;;;;;1999.90;999.90;;;13.30;99.90;;;;;;5055315;28;20431;-71
2022/06/23 02:53:20;;;;;;;1999.90;999.90;;;13.20;99.90;;;;;;5054847;28;20989;-71
2022/06/23 02:56:09;;;;;;;1999.90;999.90;;;13.10;99.90;;;;;;5055741;28;20445;-70
2022/06/23 02:58:42;;;;;;;1999.90;999.90;;;13.00;99.90;;;;;;5055668;28;20431;-70
2022/06/23 03:01:14;;;;;;;1999.90;999.90;;;12.80;99.90;;;;;;5054703;28;20442;-70
2022/06/23 03:03:49;;;;;;;1999.90;999.90;;;12.70;99.90;;;;;;5054920;28;20438;-71
2022/06/23 03:06:23;;;;;;;1999.90;999.90;;;12.70;99.90;;;;;;5054763;28;20445;-71
2022/06/23 03:08:55;;;;;;;1999.90;999.90;;;12.80;99.90;;;;;;5054791;28;20500;-70
2022/06/23 03:14:13;;;;;;;1999.90;999.90;;;12.80;99.90;;;;;;5054136;28;20486;-70
2022/06/23 03:16:46;;;;;;;1999.90;999.90;;;12.80;99.90;;;;;;5054989;28;20422;-70
2022/06/23 03:19:19;;;;;;;1999.90;999.90;;;12.70;99.90;;;;;;5055423;28;20492;-70
2022/06/23 03:21:49;;;;;;;1999.90;999.90;;;12.80;99.90;;;;;;5054680;28;20515;-71
2022/06/23 03:24:24;;;;;;;1999.90;999.90;;;12.90;99.90;;;;;;5054434;28;20455;-70
2022/06/23 03:26:55;;;;;;;1999.90;999.90;;;12.90;99.90;;;;;;5054225;28;20921;-71
2022/06/23 03:29:28;;;;;;;1999.90;999.90;;;13.00;99.90;;;;;;5054680;28;20450;-71
2022/06/23 03:32:03;;;;;;;1999.90;999.90;;;13.20;99.90;;;;;;5054294;28;20485;-71
2022/06/23 03:34:36;;;;;;;1999.90;999.90;;;13.10;99.90;;;;;;5054536;28;20536;-70
2022/06/23 03:37:08;;;;;;;1999.90;999.90;;;13.00;99.90;;;;;;5054823;28;20450;-71
2022/06/23 03:42:29;;;;;;;1999.90;999.90;;;12.90;99.90;;;;;;5054289;28;20490;-71
2022/06/23 03:45:05;;;;;;;1999.90;999.90;;;12.80;99.90;;;;;;5055127;28;20466;-71
2022/06/23 03:47:41;;;;;;;1999.90;999.90;;;12.90;99.90;;;;;;5053922;28;20454;-71
2022/06/23 03:50:20;;;;;;;1999.90;999.90;;;13.10;99.90;;;;;;5053803;28;20450;-70
2022/06/23 03:52:53;;;;;;;1999.90;999.90;;;13.20;99.90;;;;;;5053686;28;20430;-71
2022/06/23 03:55:23;;;;;;;1999.90;999.90;;;13.30;99.90;;;;;;5053347;28;20908;-71
2022/06/23 03:57:55;;;;;;;1999.90;999.90;;;13.40;99.90;;;;;;5053367;28;20488;-71
2022/06/23 04:00:29;;;;;;;1999.90;999.90;;;13.50;99.90;;;;;;5053472;28;20464;-71
2022/06/23 04:03:15;;;;;;;1999.90;999.90;;;13.60;99.90;;;;;;5053056;28;20993;-70
2022/06/23 04:06:16;;;;;;;1999.90;999.90;;;13.60;99.90;;;;;;5053049;28;20478;-71
2022/06/23 04:08:49;;;;;;;1999.90;999.90;;;13.60;99.90;;;;;;5053127;28;20870;-71
2022/06/23 04:14:07;;;;;;;1999.90;999.90;;;13.80;99.90;;;;;;5052882;28;21028;-71
2022/06/23 04:16:35;;;;;;;1999.90;999.90;;;14.00;99.90;;;;;;5052681;28;20446;-71
2022/06/23 04:19:08;;;;;;;1999.90;999.90;;;14.10;99.90;;;;;;5052659;28;20875;-71
2022/06/23 04:21:42;;;;;;;1999.90;999.90;;;14.10;99.90;;;;;;5051925;28;20450;-71
2022/06/23 04:24:17;;;;;;;1999.90;999.90;;;14.20;99.90;;;;;;5052641;28;20492;-71
2022/06/23 04:26:48;;;;;;;1999.90;999.90;;;14.30;99.90;;;;;;5052510;28;20906;-71
2022/06/23 04:29:21;;;;;;;1999.90;999.90;;;14.30;99.90;;;;;;5052622;28;20426;-71
2022/06/23 04:31:50;;;;;;;1999.90;999.90;;;14.50;99.90;;;;;;5052389;28;20450;-71
2022/06/23 04:34:22;;;;;;;1999.90;999.90;;;14.90;99.90;;;;;;5052119;28;20540;-71
2022/06/23 04:36:51;;;;;;;1999.90;999.90;;;15.70;99.90;;;;;;5052462;28;20431;-70
2022/06/23 04:39:24;;;;;;;1999.90;999.90;;;16.40;99.90;;;;;;5052520;28;20472;-71
2022/06/23 04:41:58;;;;;;;1999.90;999.90;;;17.00;99.90;;;;;;5052718;28;20446;-71
2022/06/23 04:44:28;;;;;;;1999.90;999.90;;;17.30;99.90;;;;;;5053076;28;20843;-72
2022/06/23 04:46:58;;;;;;;1999.90;999.90;;;17.70;99.90;;;;;;5054069;28;20446;-71
2022/06/23 04:49:30;;;;;;;1999.90;999.90;;;18.10;99.90;;;;;;5053915;28;20873;-70
2022/06/23 04:52:02;;;;;;;1999.90;999.90;;;18.50;99.90;;;;;;5053716;28;20450;-71
2022/06/23 04:54:33;;;;;;;1999.90;999.90;;;18.50;99.90;;;;;;5053733;28;20486;-71
2022/06/23 04:57:07;;;;;;;1999.90;999.90;;;18.50;99.90;;;;;;5053965;28;20508;-71
2022/06/23 04:59:39;;;;;;;1999.90;999.90;;;18.50;99.90;;;;;;5054030;28;20859;-71
2022/06/23 05:02:21;;;;;;;1999.90;999.90;;;18.40;99.90;;;;;;5053131;28;20968;-71
2022/06/23 05:04:55;;;;;;;1999.90;999.90;;;18.60;99.90;;;;;;5053945;28;20461;-71
2022/06/23 05:07:28;;;;;;;1999.90;999.90;;;18.50;99.90;;;;;;5052766;28;20491;-71
2022/06/23 05:09:59;;;;;;;1999.90;999.90;;;18.70;99.90;;;;;;5051932;28;20446;-71
2022/06/23 05:12:29;;;;;;;1999.90;999.90;;;19.00;99.90;;;;;;5051692;28;20450;-71
2022/06/23 05:15:00;;;;;;;1999.90;999.90;;;19.20;99.90;;;;;;5051875;28;20912;-71
2022/06/23 05:17:30;;;;;;;1999.90;999.90;;;19.50;99.90;;;;;;5051346;28;20524;-71
2022/06/23 05:20:00;;;;;;;1999.90;999.90;;;19.30;99.90;;;;;;5052180;28;20493;-71
2022/06/23 05:22:34;;;;;;;1999.90;999.90;;;19.60;99.90;;;;;;5052121;28;20438;-71
2022/06/23 05:25:27;;;;;;;1999.90;999.90;;;19.40;99.90;;;;;;5051815;28;20869;-71
2022/06/23 05:27:54;;;;;;;1999.90;999.90;;;19.70;99.90;;;;;;5051952;28;20435;-71
2022/06/23 05:30:27;;;;;;;1999.90;999.90;;;19.60;99.90;;;;;;5051804;28;20492;-71
2022/06/23 05:33:01;;;;;;;1999.90;999.90;;;19.50;99.90;;;;;;5051988;28;20473;-71
2022/06/23 05:35:32;;;;;;;1999.90;999.90;;;19.30;99.90;;;;;;5055047;28;20478;-72
2022/06/23 05:38:06;;;;;;;1999.90;999.90;;;19.50;99.90;;;;;;5055717;28;20512;-71
2022/06/23 05:40:37;;;;;;;1999.90;999.90;;;19.60;99.90;;;;;;5055667;28;20499;-71
2022/06/23 05:43:04;;;;;;;1999.90;999.90;;;19.70;99.90;;;;;;5055983;28;20512;-71
2022/06/23 05:45:38;;;;;;;1999.90;999.90;;;19.60;99.90;;;;;;5055439;28;20523;-71
2022/06/23 05:48:07;;;;;;;1999.90;999.90;;;19.90;99.90;;;;;;5055913;28;20500;-71
2022/06/23 05:50:43;;;;;;;1999.90;999.90;;;19.80;99.90;;;;;;5055448;28;20452;-71
2022/06/23 05:53:17;;;;;;;1999.90;999.90;;;19.80;99.90;;;;;;5055370;28;20479;-71
2022/06/23 05:55:49;;;;;;;1999.90;999.90;;;19.70;99.90;;;;;;5055427;28;20458;-71
2022/06/23 05:58:24;;;;;;;1999.90;999.90;;;19.90;99.90;;;;;;5055346;28;20938;-71
2022/06/23 06:00:58;;;;;;;1999.90;999.90;;;19.80;99.90;;;;;;5055542;28;20426;-72
2022/06/23 06:03:29;;;;;;;1999.90;999.90;;;19.80;99.90;;;;;;5055273;28;20446;-71
2022/06/23 06:05:58;;;;;;;1999.90;999.90;;;20.20;99.90;;;;;;5055039;28;20499;-71
2022/06/23 06:08:30;;;;;;;1999.90;999.90;;;20.30;99.90;;;;;;5055263;28;20446;-71
2022/06/23 06:10:58;;;;;;;1999.90;999.90;;;20.40;99.90;;;;;;5055284;28;20446;-72
2022/06/23 06:13:32;;;;;;;1999.90;999.90;;;20.30;99.90;;;;;;5055033;28;20495;-72
2022/06/23 06:16:00;;;;;;;1999.90;999.90;;;20.70;99.90;;;;;;5054569;28;20454;-71
2022/06/23 06:18:31;;;;;;;1999.90;999.90;;;20.90;99.90;;;;;;5055046;28;20484;-71
2022/06/23 06:21:01;;;;;;;1999.90;999.90;;;20.80;99.90;;;;;;5054805;28;20729;-71
2022/06/23 06:23:38;;;;;;;1999.90;999.90;;;21.00;99.90;;;;;;5055085;28;20491;-71
2022/06/23 06:26:05;;;;;;;1999.90;999.90;;;20.60;99.90;;;;;;5054731;28;20475;-71
2022/06/23 06:28:33;;;;;;;1999.90;999.90;;;20.90;99.90;;;;;;5054864;28;20446;-71
2022/06/23 06:31:05;;;;;;;1999.90;999.90;;;20.90;99.90;;;;;;5054785;28;20438;-71
2022/06/23 06:33:43;;;;;;;1999.90;999.90;;;21.00;99.90;;;;;;5054820;28;20430;-71
2022/06/23 06:36:28;;;;;;;1999.90;999.90;;;21.20;99.90;;;;;;5054838;28;20422;-71
2022/06/23 06:39:02;;;;;;;1999.90;999.90;;;21.10;99.90;;;;;;5054407;28;20438;-71
2022/06/23 06:41:29;;;;;;;1999.90;999.90;;;21.50;99.90;;;;;;5054454;28;20446;-71
2022/06/23 06:43:57;;;;;;;1999.90;999.90;;;21.60;99.90;;;;;;5054514;28;20541;-71
2022/06/23 06:46:24;;;;;;;1999.90;999.90;;;21.70;99.90;;;;;;5054206;28;20480;-71
2022/06/23 06:48:51;;;;;;;1999.90;999.90;;;21.90;99.90;;;;;;5054179;28;20996;-72
2022/06/23 06:51:21;;;;;;;1999.90;999.90;;;22.10;99.90;;;;;;5054143;28;20450;-71
2022/06/23 06:53:51;;;;;;;1999.90;999.90;;;22.40;99.90;;;;;;5054078;28;20982;-71
2022/06/23 06:56:24;;;;;;;1999.90;999.90;;;22.90;99.90;;;;;;5054392;28;20473;-71
2022/06/23 06:58:56;;;;;;;1999.90;999.90;;;22.50;99.90;;;;;;5054519;28;20454;-71
2022/06/23 07:01:25;;;;;;;1999.90;999.90;;;22.50;99.90;;;;;;5054409;28;20431;-70
2022/06/23 07:03:54;;;;;;;1999.90;999.90;;;22.50;99.90;;;;;;5046691;28;20517;-71
2022/06/23 07:06:28;;;;;;;1999.90;999.90;;;22.80;99.90;;;;;;5034514;28;20443;-72
2022/06/23 07:09:02;;;;;;;1999.90;999.90;;;22.70;99.90;;;;;;5034318;28;20432;-71
2022/06/23 07:11:36;;;;;;;1999.90;999.90;;;22.80;99.90;;;;;;5033686;28;20454;-71
2022/06/23 07:14:12;;;;;;;1999.90;999.90;;;23.00;99.90;;;;;;5051325;22;20483;-69
2022/06/23 07:16:43;;;;;;;1999.90;999.90;;;23.40;99.90;;;;;;5043421;28;20458;-71
2022/06/23 07:19:17;;;;;;;1999.90;999.90;;;23.50;99.90;;;;;;5033593;28;20785;-71
2022/06/23 07:21:47;;;;;;;1999.90;999.90;;;23.50;99.90;;;;;;5034086;28;20440;-69
2022/06/23 07:24:21;;;;;;;1999.90;999.90;;;23.60;99.90;;;;;;5034524;28;20502;-69
2022/06/23 07:26:54;;;;;;;1999.90;999.90;;;23.80;99.90;;;;;;5034602;28;20509;-69
2022/06/23 07:29:29;;;;;;;1999.90;999.90;;;24.00;99.90;;;;;;5034696;28;20729;-69
2022/06/23 07:32:06;;;;;;;1999.90;999.90;;;24.20;99.50;;;;;;5021541;28;20585;-68
2022/06/23 07:34:38;;;;;;;1999.90;999.90;;;24.00;98.60;;;;;;5014018;28;20511;-69
2022/06/23 07:37:13;;;;;;;1999.90;999.90;;;24.40;98.50;;;;;;5014620;28;20463;-69
2022/06/23 07:39:41;;;;;;;1999.90;999.90;;;24.40;98.40;;;;;;5014103;28;20959;-70
2022/06/23 07:42:16;;;;;;;1999.90;999.90;;;24.50;97.90;;;;;;5014134;28;20443;-69
2022/06/23 07:44:48;;;;;;;1999.90;999.90;;;24.60;98.00;;;;;;5013987;28;20464;-69
2022/06/23 07:47:17;;;;;;;1999.90;999.90;;;24.50;97.60;;;;;;5013697;28;20459;-70
2022/06/23 07:49:43;;;;;;;1999.90;999.90;;;24.60;97.10;;;;;;5014430;28;20448;-71
2022/06/23 07:52:14;;;;;;;1999.90;999.90;;;25.00;96.10;;;;;;5013797;28;20456;-69
2022/06/23 07:54:42;;;;;;;1999.90;999.90;;;25.40;95.50;;;;;;5013969;28;21041;-69
2022/06/23 07:57:10;;;;;;;1999.90;999.90;;;25.60;94.30;;;;;;5013091;28;20890;-70
2022/06/23 07:59:40;;;;;;;1999.90;999.90;;;25.70;93.90;;;;;;5013842;28;20448;-70
2022/06/23 08:02:14;;;;;;;1999.90;999.90;;;25.60;93.80;;;;;;5013784;28;20459;-69
2022/06/23 08:04:52;;;;;;;1999.90;999.90;;;25.60;93.40;;;;;;5013716;28;21035;-70
2022/06/23 08:07:20;;;;;;;1999.90;999.90;;;25.70;93.60;;;;;;5013968;28;20847;-69
2022/06/23 08:09:50;;;;;;;1999.90;999.90;;;25.80;94.20;;;;;;5014112;28;20498;-68
2022/06/23 08:18:02;;;;;;;1999.90;999.90;;;25.80;93.10;;;;;;5012776;28;20424;-69
2022/06/23 08:20:31;;;;;;;1999.90;999.90;;;26.00;92.50;;;;;;5013624;28;20467;-69
2022/06/23 08:23:01;;;;;;;1999.90;999.90;;;26.20;93.10;;;;;;5013470;28;20448;-69
2022/06/23 08:25:29;;;;;;;1999.90;999.90;;;26.20;92.10;;;;;;5013191;28;20825;-69
2022/06/23 08:27:58;;;;;;;1999.90;999.90;;;26.30;92.00;;;;;;5013402;28;20456;-68
2022/06/23 08:30:26;;;;;;;1999.90;999.90;;;26.30;91.10;;;;;;5013183;28;21011;-69
2022/06/23 08:32:55;;;;;;;1999.90;999.90;;;26.40;90.50;;;;;;5013274;28;20940;-68
2022/06/23 08:35:29;;;;;;;1999.90;999.90;;;26.30;89.50;;;;;;5013423;28;20491;-69
2022/06/23 08:37:59;;;;;;;1999.90;999.90;;;26.20;88.10;;;;;;5013533;28;20928;-69
2022/06/23 08:40:35;;;;;;;1999.90;999.90;;;26.20;89.30;;;;;;5013741;28;20479;-69
2022/06/23 08:43:14;;;;;;;1999.90;999.90;;;26.10;88.30;;;;;;5013438;28;20998;-69
2022/06/23 08:45:45;;;;;;;1999.90;999.90;;;26.20;89.00;;;;;;5013375;28;20468;-69
2022/06/23 08:48:23;;;;;;;1999.90;999.90;;;26.40;90.20;;;;;;5013162;28;20855;-69
2022/06/23 08:50:56;;;;;;;1999.90;999.90;;;26.60;89.00;;;;;;5013265;28;20480;-69
2022/06/23 08:53:28;;;;;;;1999.90;999.90;;;26.70;86.90;;;;;;5013125;28;20494;-69
2022/06/23 08:56:01;;;;;;;1999.90;999.90;;;27.00;86.10;;;;;;5013140;28;20715;-69
2022/06/23 08:58:37;;;;;;;1999.90;999.90;;;27.30;84.80;;;;;;5012970;28;20461;-69
2022/06/23 09:01:11;;;;;;;1999.90;999.90;;;27.30;81.60;;;;;;5012670;28;20872;-68
2022/06/23 09:03:48;;;;;;;1999.90;999.90;;;27.40;82.30;;;;;;5012884;28;20448;-69
2022/06/23 09:06:27;;;;;;;1999.90;999.90;;;27.40;82.00;;;;;;5012835;28;20840;-69
2022/06/23 09:09:01;;;;;;;1999.90;999.90;;;27.40;80.00;;;;;;5013028;28;20456;-68
2022/06/23 09:11:37;;;;;;;1999.90;999.90;;;27.50;78.60;;;;;;5012698;28;20998;-69
2022/06/23 09:14:27;;;;;;;1999.90;999.90;;;27.50;77.20;;;;;;5012547;28;20505;-69
2022/06/23 09:17:11;;;;;;;1999.90;999.90;;;27.50;78.00;;;;;;5012448;28;20429;-69
2022/06/23 09:19:51;;;;;;;1999.90;999.90;;;27.60;79.60;;;;;;5012535;28;20949;-69
2022/06/23 09:22:42;;;;;;;1999.90;999.90;;;27.60;78.30;;;;;;5012416;28;20452;-69
2022/06/23 09:25:16;;;;;;;1999.90;999.90;;;27.50;76.70;;;;;;5012694;28;20476;-69
2022/06/23 09:27:54;;;;;;;1999.90;999.90;;;27.70;77.70;;;;;;5012666;28;20477;-69
2022/06/23 09:30:37;;;;;;;1999.90;999.90;;;28.00;78.40;;;;;;5012551;28;20448;-69
2022/06/23 09:33:18;;;;;;;1999.90;999.90;;;28.00;73.60;;;;;;5012594;28;20455;-69
2022/06/23 09:36:18;;;;;;;1999.90;999.90;;;28.20;74.40;;;;;;5012269;28;21064;-69
2022/06/23 09:39:05;;;;;;;1999.90;999.90;;;28.40;72.10;;;;;;5012627;28;20452;-69
2022/06/23 09:41:58;;;;;;;1999.90;999.90;;;28.40;73.00;;;;;;5011942;28;20936;-68
2022/06/23 09:44:35;;;;;;;1999.90;999.90;;;28.30;72.70;;;;;;5012686;28;20537;-69
2022/06/23 09:47:25;;;;;;;1999.90;999.90;;;28.20;72.10;;;;;;5012343;28;20455;-68
2022/06/23 09:50:21;;;;;;;1999.90;999.90;;;28.40;72.50;;;;;;5012794;28;20495;-68
2022/06/23 09:53:08;;;;;;;1999.90;999.90;;;28.50;71.90;;;;;;5009543;28;20949;-70
2022/06/23 09:56:04;;;;;;;1999.90;999.90;;;28.40;72.10;;;;;;5011916;28;20534;-70
2022/06/23 09:59:16;;;;;;;1999.90;999.90;;;28.50;72.00;;;;;;5011956;28;20448;-68
2022/06/23 10:01:49;;;;;;;1999.90;999.90;;;28.50;71.00;;;;;;4983663;28;20455;-69
2022/06/23 10:04:49;;;;;;;1999.90;999.90;;;28.50;69.70;;;;;;5011872;28;20459;-70
2022/06/23 10:07:36;;;;;;;1999.90;999.90;;;28.60;70.60;;;;;;5011911;28;20432;-70
2022/06/23 10:10:24;;;;;;;1999.90;999.90;;;28.40;69.70;;;;;;5011595;28;20432;-70
2022/06/23 10:13:11;;;;;;;1999.90;999.90;;;28.50;69.50;;;;;;5011853;28;20495;-70
2022/06/23 10:15:52;;;;;;;1999.90;999.90;;;28.40;69.00;;;;;;5011417;28;20491;-69
2022/06/23 10:18:45;;;;;;;1999.90;999.90;;;28.60;69.30;;;;;;5011825;28;20575;-70
2022/06/23 10:21:24;;;;;;;1999.90;999.90;;;28.90;69.10;;;;;;5001047;28;20956;-70
2022/06/23 10:24:07;;;;;;;1999.90;999.90;;;29.00;67.80;;;;;;5015123;28;20444;-69
2022/06/23 10:26:49;;;;;;;1999.90;999.90;;;28.90;67.30;;;;;;5015402;28;20428;-70
2022/06/23 10:29:48;;;;;;;1999.90;999.90;;;28.80;65.70;;;;;;5014887;28;20975;-70
2022/06/23 10:32:45;;;;;;;1999.90;999.90;;;28.70;66.70;;;;;;5014617;28;20452;-69
2022/06/23 10:35:26;;;;;;;1999.90;999.90;;;28.80;67.60;;;;;;5015145;28;20488;-70
2022/06/23 10:38:37;;;;;;;1999.90;999.90;;;28.90;66.00;;;;;;5014749;28;20428;-69
2022/06/23 10:41:17;;;;;;;1999.90;999.90;;;28.90;65.80;;;;;;4953832;29;20447;-69
2022/06/23 10:44:13;;;;;;;1999.90;999.90;;;28.60;66.00;;;;;;5005493;28;20505;-70
2022/06/23 10:46:43;;;;;;;1999.90;999.90;;;28.60;65.70;;;;;;4993798;28;20459;-70
2022/06/23 10:49:39;;;;;;;1999.90;999.90;;;28.60;65.30;;;;;;5014408;28;20650;-70
2022/06/23 10:52:37;;;;;;;1999.90;999.90;;;28.80;66.00;;;;;;5014378;28;20862;-70
2022/06/23 10:55:22;;;;;;;1999.90;999.90;;;29.00;63.70;;;;;;5014674;28;20492;-70
2022/06/23 10:58:08;;;;;;;1999.90;999.90;;;29.00;64.60;;;;;;5014828;28;20448;-69
2022/06/23 11:00:42;;;;;;;1999.90;999.90;;;29.10;63.20;;;;;;5014375;28;20479;-70
2022/06/23 11:03:39;;;;;;;1999.90;999.90;;;29.30;63.60;;;;;;5014720;28;20489;-69
2022/06/23 11:06:30;;;;;;;1999.90;999.90;;;29.20;63.10;;;;;;5014304;28;20996;-70
2022/06/23 11:09:26;;;;;;;1999.90;999.90;;;29.30;63.50;;;;;;5014394;28;20448;-70
2022/06/23 11:12:09;;;;;;;1999.90;999.90;;;29.50;63.40;;;;;;5014125;28;20514;-70
2022/06/23 11:14:45;;;;;;;1999.90;999.90;;;29.50;64.00;;;;;;5013922;28;21054;-70
2022/06/23 11:17:20;;;;;;;1999.90;999.90;;;29.30;63.50;;;;;;5013606;28;21070;-70
2022/06/23 11:19:58;;;;;;;1999.90;999.90;;;29.50;63.80;;;;;;5014235;28;20451;-70
2022/06/23 11:22:36;;;;;;;1999.90;999.90;;;29.60;62.50;;;;;;5013933;28;20456;-70
2022/06/23 11:25:14;;;;;;;1999.90;999.90;;;29.80;61.70;;;;;;5014213;28;20464;-70
2022/06/23 11:27:52;;;;;;;1999.90;999.90;;;29.80;61.00;;;;;;5014070;28;20509;-70
2022/06/23 11:30:27;;;;;;;1999.90;999.90;;;29.50;61.00;;;;;;5013974;28;20448;-71
2022/06/23 11:33:06;;;;;;;1999.90;999.90;;;29.60;60.80;;;;;;5013031;28;20432;-70
2022/06/23 11:35:46;;;;;;;1999.90;999.90;;;29.60;60.50;;;;;;5013871;28;20487;-70
2022/06/23 11:38:26;;;;;;;1999.90;999.90;;;29.90;60.20;;;;;;5014088;28;20518;-70
2022/06/23 11:41:05;;;;;;;1999.90;999.90;;;30.00;59.20;;;;;;5013569;28;20786;-70
2022/06/23 11:43:44;;;;;;;1999.90;999.90;;;30.00;59.80;;;;;;5013608;28;20440;-70
2022/06/23 11:46:24;;;;;;;1999.90;999.90;;;30.10;59.30;;;;;;5013886;28;20518;-69
2022/06/23 11:49:20;;;;;;;1999.90;999.90;;;30.20;57.80;;;;;;5013632;28;20486;-69
2022/06/23 11:52:16;;;;;;;1999.90;999.90;;;30.30;58.50;;;;;;5004028;28;20452;-70
2022/06/23 11:54:55;;;;;;;1999.90;999.90;;;30.40;57.80;;;;;;5013502;28;20499;-70
2022/06/23 11:57:37;;;;;;;1999.90;999.90;;;30.20;56.80;;;;;;5013413;28;21015;-70
2022/06/23 12:00:08;;;;;;;1999.90;999.90;;;30.00;57.00;;;;;;5013444;28;20486;-70
2022/06/23 12:02:45;;;;;;;1999.90;999.90;;;30.10;56.90;;;;;;5013270;28;20503;-70
2022/06/23 12:05:19;;;;;;;1999.90;999.90;;;30.10;58.70;;;;;;5013321;28;20467;-70
2022/06/23 12:08:11;;;;;;;1999.90;999.90;;;30.10;58.00;;;;;;5013538;28;20448;-70
2022/06/23 12:10:38;;;;;;;1999.90;999.90;;;30.10;57.20;;;;;;4986651;28;20448;-70
2022/06/23 12:13:06;;;;;;;1999.90;999.90;;;30.20;59.50;;;;;;5013320;28;20479;-70
2022/06/23 12:15:39;;;;;;;1999.90;999.90;;;30.30;56.30;;;;;;5013004;28;20847;-70
2022/06/23 12:18:12;;;;;;;1999.90;999.90;;;30.20;55.60;;;;;;5012989;28;20444;-69
2022/06/23 12:20:46;;;;;;;1999.90;999.90;;;30.50;56.30;;;;;;5013195;28;20871;-70
2022/06/23 12:23:19;;;;;;;1999.90;999.90;;;30.60;58.00;;;;;;5012740;28;20860;-70
2022/06/23 12:25:58;;;;;;;1999.90;999.90;;;30.50;56.80;;;;;;5013092;28;20468;-70
2022/06/23 12:28:32;;;;;;;1999.90;999.90;;;31.00;57.80;;;;;;5012712;28;20474;-70
2022/06/23 12:31:11;;;;;;;1999.90;999.90;;;30.70;56.60;;;;;;5012901;28;20447;-67
2022/06/23 12:33:48;;;;;;;1999.90;999.90;;;30.70;55.60;;;;;;5012790;28;20944;-70
2022/06/23 12:36:24;;;;;;;1999.90;999.90;;;30.50;54.90;;;;;;5012714;28;20983;-70
2022/06/23 12:38:56;;;;;;;1999.90;999.90;;;30.50;55.90;;;;;;5012879;28;20436;-70
2022/06/23 12:41:27;;;;;;;1999.90;999.90;;;30.60;55.90;;;;;;5012440;28;20452;-71
2022/06/23 12:43:58;;;;;;;1999.90;999.90;;;30.50;55.90;;;;;;5012326;28;20809;-70
2022/06/23 12:46:36;;;;;;;1999.90;999.90;;;30.60;56.00;;;;;;5012888;28;20483;-70
2022/06/23 12:49:35;;;;;;;1999.90;999.90;;;30.70;55.30;;;;;;5012546;28;20624;-70
2022/06/23 12:52:18;;;;;;;1999.90;999.90;;;30.80;55.80;;;;;;5012268;28;20448;-70
2022/06/23 12:55:01;;;;;;;1999.90;999.90;;;30.80;54.70;;;;;;5012523;28;20468;-70